Time;durP1;ratioP1;P1;durP2;ratioP2;P2;SDS_P1;SDS_P2;PMS_P1;PMS_P2;Temp;Humidity;BMP_temperature;BMP_pressure;BME280_temperature;BME280_humidity;BME280_pressure;Samples;Min_cycle;Max_cycle;Signal;HPM_P1;HPM_P2
2022/04/08 00:01:28;;;;;;;0.80;0.20;;;13.10;96.90;;;;;;5012120;28;20028;-72
2022/04/08 00:03:55;;;;;;;1.10;0.25;;;13.00;97.20;;;;;;4988229;28;20018;-73
2022/04/08 00:06:23;;;;;;;0.57;0.40;;;12.90;97.60;;;;;;5012632;28;20028;-73
2022/04/08 00:08:49;;;;;;;0.32;0.30;;;13.00;98.40;;;;;;5006012;28;20452;-73
2022/04/08 00:11:16;;;;;;;0.73;0.20;;;12.90;98.80;;;;;;4987444;28;20040;-73
2022/04/08 00:13:43;;;;;;;0.40;0.20;;;12.90;99.10;;;;;;5005412;28;20032;-73
2022/04/08 00:16:09;;;;;;;0.60;0.28;;;12.80;98.90;;;;;;4990762;28;20025;-73
2022/04/08 00:18:36;;;;;;;0.10;0.10;;;12.80;98.80;;;;;;4986779;28;20112;-73
2022/04/08 00:21:03;;;;;;;0.40;0.30;;;12.60;98.70;;;;;;5012034;28;20037;-73
2022/04/08 00:23:30;;;;;;;0.20;0.10;;;12.60;98.60;;;;;;5010721;28;20028;-73
2022/04/08 00:25:56;;;;;;;;;;;12.50;98.80;;;;;;4990667;28;20032;-73
2022/04/08 00:28:22;;;;;;;0.28;0.13;;;12.50;99.00;;;;;;5006876;28;20252;-74
2022/04/08 00:30:49;;;;;;;1.80;0.63;;;12.50;99.20;;;;;;5007435;28;20025;-72
2022/04/08 00:33:15;;;;;;;1.45;0.15;;;12.30;99.30;;;;;;5009186;28;20349;-73
2022/04/08 00:35:40;;;;;;;0.10;0.10;;;12.40;99.60;;;;;;5002538;28;20033;-73
2022/04/08 00:38:08;;;;;;;1.37;0.30;;;12.30;99.70;;;;;;5011730;28;20030;-72
2022/04/08 00:40:36;;;;;;;0.22;0.17;;;12.20;99.70;;;;;;5005857;28;20028;-74
2022/04/08 00:43:19;;;;;;;0.52;0.20;;;12.20;99.70;;;;;;5006982;28;20096;-73
2022/04/08 00:45:47;;;;;;;0.20;0.20;;;12.20;99.90;;;;;;4982456;28;20383;-73
2022/04/08 00:48:14;;;;;;;1.00;0.20;;;12.00;99.90;;;;;;4993398;28;20403;-73
2022/04/08 00:50:44;;;;;;;0.32;0.22;;;12.10;99.90;;;;;;5007634;28;20021;-73
2022/04/08 00:53:11;;;;;;;0.20;0.17;;;12.00;99.90;;;;;;4991420;28;20051;-73
2022/04/08 00:55:38;;;;;;;;;;;12.00;99.90;;;;;;5008762;28;20371;-73
2022/04/08 00:58:04;;;;;;;0.95;0.30;;;12.00;99.90;;;;;;5011165;28;19909;-72
2022/04/08 01:00:35;;;;;;;;;;;12.10;99.90;;;;;;5006925;28;20025;-73
2022/04/08 01:03:07;;;;;;;1.23;0.28;;;12.00;99.90;;;;;;5008624;28;19936;-72
2022/04/08 01:05:33;;;;;;;0.50;0.35;;;12.00;99.00;;;;;;5003398;28;20064;-72
2022/04/08 01:08:03;;;;;;;0.83;0.40;;;12.00;99.20;;;;;;4989984;28;20026;-72
2022/04/08 01:10:28;;;;;;;0.55;0.30;;;11.90;99.70;;;;;;5008378;28;20025;-74
2022/04/08 01:12:55;;;;;;;0.32;0.28;;;12.00;99.90;;;;;;5007344;28;20087;-73
2022/04/08 01:15:21;;;;;;;;;;;12.00;99.90;;;;;;4993298;28;20052;-73
2022/04/08 01:17:50;;;;;;;0.77;0.20;;;12.00;99.90;;;;;;5005663;28;19908;-73
2022/04/08 01:20:17;;;;;;;0.20;0.20;;;12.00;99.90;;;;;;5012881;28;20310;-72
2022/04/08 01:22:44;;;;;;;0.38;0.30;;;12.00;99.90;;;;;;5009714;28;20032;-72
2022/04/08 01:25:12;;;;;;;1.23;0.20;;;11.90;99.90;;;;;;5008902;28;20045;-73
2022/04/08 01:27:39;;;;;;;0.63;0.20;;;11.90;99.90;;;;;;5007318;28;20010;-73
2022/04/08 01:30:07;;;;;;;0.17;0.17;;;11.80;99.90;;;;;;4987915;28;20032;-72
2022/04/08 01:32:32;;;;;;;0.90;0.40;;;11.80;99.90;;;;;;4994520;28;20022;-72
2022/04/08 01:35:00;;;;;;;0.53;0.53;;;11.70;98.60;;;;;;4993664;28;20598;-72
2022/04/08 01:37:28;;;;;;;0.65;0.20;;;11.70;98.80;;;;;;5016940;28;20026;-72
2022/04/08 01:39:55;;;;;;;1.27;0.40;;;11.70;98.40;;;;;;5010804;28;20847;-72
2022/04/08 01:42:24;;;;;;;2.22;0.57;;;11.60;97.20;;;;;;5001682;28;20022;-73
2022/04/08 01:44:53;;;;;;;0.82;0.40;;;11.50;96.80;;;;;;5009606;28;20781;-72
2022/04/08 01:47:19;;;;;;;2.65;0.60;;;11.50;95.90;;;;;;5014931;28;20021;-72
2022/04/08 01:49:45;;;;;;;1.17;0.30;;;11.50;96.50;;;;;;5012661;28;20110;-73
2022/04/08 01:52:11;;;;;;;1.95;0.40;;;11.40;97.10;;;;;;5015045;28;20727;-73
2022/04/08 01:54:38;;;;;;;0.50;0.43;;;11.40;98.50;;;;;;5010608;28;20026;-73
2022/04/08 01:57:04;;;;;;;1.48;0.60;;;11.30;98.90;;;;;;5020014;28;20033;-73
2022/04/08 01:59:29;;;;;;;0.85;0.38;;;11.20;98.90;;;;;;5010973;28;20470;-73
2022/04/08 02:02:00;;;;;;;3.93;1.13;;;11.10;98.60;;;;;;5014213;28;20039;-73
2022/04/08 02:04:27;;;;;;;1.35;0.50;;;11.10;98.70;;;;;;4995843;28;20120;-73
2022/04/08 02:06:55;;;;;;;2.30;0.60;;;10.90;98.70;;;;;;5011281;28;20044;-73
2022/04/08 02:09:24;;;;;;;4.72;1.15;;;10.90;99.20;;;;;;4995370;28;20025;-72
2022/04/08 02:11:50;;;;;;;1.73;0.70;;;10.80;99.00;;;;;;5014644;28;20021;-73
2022/04/08 02:14:16;;;;;;;3.00;1.23;;;10.80;99.30;;;;;;5016525;28;20029;-72
2022/04/08 02:16:42;;;;;;;1.08;0.73;;;10.80;99.70;;;;;;4996258;28;20037;-73
2022/04/08 02:19:12;;;;;;;1.52;0.73;;;10.70;98.90;;;;;;5014961;28;20030;-73
2022/04/08 02:21:39;;;;;;;1.58;0.88;;;10.70;98.70;;;;;;4995506;28;20021;-73
2022/04/08 02:24:06;;;;;;;1.83;0.70;;;10.60;98.90;;;;;;4996933;28;20076;-72
2022/04/08 02:26:32;;;;;;;3.70;0.75;;;10.50;98.90;;;;;;5007719;28;20024;-72
2022/04/08 02:28:59;;;;;;;1.63;0.63;;;10.50;98.70;;;;;;5020031;28;20025;-73
2022/04/08 02:31:24;;;;;;;4.55;1.08;;;10.50;98.50;;;;;;4995117;28;20450;-72
2022/04/08 02:33:51;;;;;;;1.23;0.40;;;10.40;98.60;;;;;;5011047;28;20116;-73
2022/04/08 02:36:19;;;;;;;3.15;0.90;;;10.50;98.30;;;;;;5016427;28;20583;-73
2022/04/08 02:38:45;;;;;;;1.52;0.63;;;10.40;98.10;;;;;;5007746;28;20084;-73
2022/04/08 02:41:12;;;;;;;3.60;0.80;;;10.40;97.80;;;;;;5014961;28;20087;-72
2022/04/08 02:43:38;;;;;;;;;;;10.30;98.30;;;;;;4994257;28;20636;-73
2022/04/08 02:46:04;;;;;;;3.25;1.48;;;10.40;97.90;;;;;;5011746;28;19909;-73
2022/04/08 02:48:30;;;;;;;;;;;10.40;97.70;;;;;;5013195;28;20021;-73
2022/04/08 02:50:56;;;;;;;2.53;0.88;;;10.40;96.70;;;;;;5012578;28;19970;-74
2022/04/08 02:53:22;;;;;;;3.63;0.97;;;10.30;96.70;;;;;;4994200;28;20060;-73
2022/04/08 02:55:50;;;;;;;2.13;0.70;;;10.30;96.80;;;;;;4985518;28;20030;-73
2022/04/08 02:58:19;;;;;;;2.13;0.90;;;10.30;96.90;;;;;;5013555;28;20374;-73
2022/04/08 03:00:44;;;;;;;5.13;1.00;;;10.40;96.50;;;;;;4989678;28;20045;-73
2022/04/08 03:03:10;;;;;;;4.33;1.00;;;10.40;96.70;;;;;;5010913;28;20036;-73
2022/04/08 03:05:35;;;;;;;3.23;1.03;;;10.40;96.40;;;;;;4986178;28;20029;-72
2022/04/08 03:08:05;;;;;;;5.23;1.43;;;10.40;96.20;;;;;;4993319;28;20115;-74
2022/04/08 03:10:30;;;;;;;2.88;0.82;;;10.30;95.80;;;;;;5001719;28;20032;-73
2022/04/08 03:12:56;;;;;;;3.97;0.80;;;10.30;95.60;;;;;;4988260;28;20022;-72
2022/04/08 03:15:22;;;;;;;6.20;0.97;;;10.40;95.40;;;;;;5015006;28;20153;-74
2022/04/08 03:17:51;;;;;;;3.50;0.80;;;10.30;95.30;;;;;;4988652;28;20112;-74
2022/04/08 03:20:17;;;;;;;5.60;0.95;;;10.40;95.70;;;;;;5013877;28;20017;-72
2022/04/08 03:22:46;;;;;;;3.55;1.25;;;10.30;95.70;;;;;;5011622;28;20125;-72
2022/04/08 03:25:12;;;;;;;2.40;1.00;;;10.30;95.70;;;;;;4992970;28;20041;-73
2022/04/08 03:27:37;;;;;;;4.23;0.93;;;10.30;95.80;;;;;;5010464;28;20079;-73
2022/04/08 03:30:03;;;;;;;2.83;1.00;;;10.20;95.80;;;;;;4988691;28;20045;-72
2022/04/08 03:32:32;;;;;;;3.78;0.95;;;10.20;95.90;;;;;;5012688;28;20033;-74
2022/04/08 03:34:59;;;;;;;2.63;0.70;;;10.10;95.80;;;;;;5012746;28;20021;-75
2022/04/08 03:37:30;;;;;;;4.05;0.80;;;10.10;95.60;;;;;;4993574;28;20605;-73
2022/04/08 03:39:56;;;;;;;4.20;1.40;;;10.10;95.40;;;;;;5008768;28;20060;-74
2022/04/08 03:42:22;;;;;;;;;;;10.00;95.30;;;;;;5012147;28;20707;-74
2022/04/08 03:44:52;;;;;;;2.00;1.02;;;10.10;94.80;;;;;;4984897;28;20004;-73
2022/04/08 03:47:19;;;;;;;4.78;0.90;;;10.10;95.00;;;;;;4992102;28;20029;-73
2022/04/08 03:49:45;;;;;;;2.97;0.60;;;10.10;94.60;;;;;;4984543;28;20038;-74
2022/04/08 03:52:11;;;;;;;5.43;1.20;;;10.00;94.50;;;;;;4991553;28;20029;-77
2022/04/08 03:54:38;;;;;;;2.08;0.63;;;10.10;94.10;;;;;;5003397;28;20026;-80
2022/04/08 03:57:04;;;;;;;3.47;0.75;;;10.00;94.40;;;;;;5007108;28;20049;-78
2022/04/08 03:59:30;;;;;;;1.83;1.00;;;10.00;94.50;;;;;;5011034;28;20109;-76
2022/04/08 04:01:56;;;;;;;2.72;1.30;;;10.00;94.50;;;;;;5009457;28;20116;-75
2022/04/08 04:04:23;;;;;;;0.80;0.50;;;10.00;94.30;;;;;;5010189;28;20040;-78
2022/04/08 04:06:49;;;;;;;2.55;0.73;;;10.00;94.00;;;;;;4991088;28;20026;-74
2022/04/08 04:09:14;;;;;;;2.90;1.00;;;9.90;94.00;;;;;;5004821;28;20046;-74
2022/04/08 04:11:40;;;;;;;2.67;0.90;;;9.90;93.80;;;;;;4990691;28;20802;-76
2022/04/08 04:14:07;;;;;;;1.57;0.40;;;9.90;93.60;;;;;;5004044;28;20072;-75
2022/04/08 04:22:30;;;;;;;1.85;0.90;;;9.90;93.80;;;;;;5022963;28;20064;-74
2022/04/08 04:28:17;;;;;;;1.45;0.65;;;9.80;94.10;;;;;;5024192;28;20275;-74
2022/04/08 04:34:05;;;;;;;3.05;0.70;;;9.80;94.50;;;;;;5020590;28;20101;-72
2022/04/08 04:39:52;;;;;;;4.22;0.70;;;9.80;94.50;;;;;;5022460;28;20103;-72
2022/04/08 04:45:40;;;;;;;1.35;0.47;;;9.90;95.10;;;;;;5022707;28;20084;-73
2022/04/08 04:51:30;;;;;;;4.45;1.08;;;9.90;95.20;;;;;;5018817;28;20486;-72
2022/04/08 04:57:18;;;;;;;2.40;0.98;;;10.00;94.50;;;;;;5019353;28;20040;-72
2022/04/08 05:03:08;;;;;;;2.42;0.63;;;10.10;93.70;;;;;;5020766;28;20796;-72
2022/04/08 05:05:57;;;;;;;1.98;0.73;;;10.20;93.20;;;;;;5020987;28;20147;-73
2022/04/08 05:08:26;;;;;;;1.92;0.60;;;10.30;92.90;;;;;;4978533;28;20743;-72
2022/04/08 05:10:52;;;;;;;2.85;0.77;;;10.30;92.50;;;;;;4983615;28;20596;-73
2022/04/08 05:13:18;;;;;;;;;;;10.40;92.60;;;;;;4980667;28;20018;-73
2022/04/08 05:15:46;;;;;;;1.85;0.70;;;10.40;92.40;;;;;;4982921;28;19923;-73
2022/04/08 05:18:12;;;;;;;0.90;0.43;;;10.50;92.50;;;;;;4980387;28;20034;-72
2022/04/08 05:20:39;;;;;;;6.50;0.90;;;10.60;92.20;;;;;;4985362;28;20018;-72
2022/04/08 05:23:05;;;;;;;1.73;0.80;;;10.70;92.00;;;;;;4986157;28;20038;-71
2022/04/08 05:25:30;;;;;;;2.60;0.60;;;11.10;91.80;;;;;;4979409;28;20419;-72
2022/04/08 05:27:58;;;;;;;1.90;0.50;;;11.90;90.50;;;;;;4998759;28;20035;-72
2022/04/08 05:30:24;;;;;;;5.50;0.90;;;12.90;88.00;;;;;;4984479;28;20030;-72
2022/04/08 05:32:50;;;;;;;3.38;0.70;;;14.70;81.50;;;;;;4997654;28;20727;-72
2022/04/08 05:35:18;;;;;;;2.73;0.77;;;16.30;74.60;;;;;;4994153;28;20657;-72
2022/04/08 05:37:46;;;;;;;3.75;0.85;;;17.60;68.50;;;;;;4982487;28;20061;-72
2022/04/08 05:40:17;;;;;;;2.55;0.60;;;18.10;65.10;;;;;;4991888;28;20026;-72
2022/04/08 05:42:46;;;;;;;0.93;0.50;;;18.30;62.80;;;;;;4982371;28;20021;-72
2022/04/08 05:45:14;;;;;;;4.53;0.82;;;17.90;62.90;;;;;;4979988;28;20049;-72
2022/04/08 05:47:42;;;;;;;1.88;0.80;;;16.80;64.80;;;;;;4983310;28;20464;-72
2022/04/08 05:50:09;;;;;;;4.10;0.63;;;15.60;68.00;;;;;;4979643;28;20568;-72
2022/04/08 05:52:34;;;;;;;3.55;0.60;;;14.50;71.60;;;;;;4984128;28;20085;-72
2022/04/08 05:55:02;;;;;;;3.20;1.08;;;13.70;74.50;;;;;;4986382;28;20095;-71
2022/04/08 05:57:35;;;;;;;4.00;1.00;;;13.40;76.00;;;;;;4978390;28;20217;-71
2022/04/08 06:00:03;;;;;;;1.38;0.80;;;13.50;75.00;;;;;;4983553;28;20029;-72
2022/04/08 06:02:29;;;;;;;0.60;0.50;;;13.40;75.30;;;;;;4976630;28;20642;-71
2022/04/08 06:04:54;;;;;;;3.53;0.67;;;13.40;74.80;;;;;;4987108;28;20080;-71
2022/04/08 06:07:24;;;;;;;2.10;0.67;;;13.20;74.00;;;;;;4980142;28;20447;-72
2022/04/08 06:09:52;;;;;;;1.42;0.70;;;12.90;75.40;;;;;;4988448;28;20034;-71
2022/04/08 06:12:17;;;;;;;2.47;0.75;;;12.50;77.80;;;;;;4980190;28;20030;-72
2022/04/08 06:14:43;;;;;;;3.23;0.90;;;12.30;76.50;;;;;;4982454;28;20045;-71
2022/04/08 06:17:09;;;;;;;0.83;0.60;;;12.00;77.40;;;;;;4991308;28;20105;-71
2022/04/08 06:19:34;;;;;;;3.77;0.80;;;11.90;77.90;;;;;;4985811;28;20084;-71
2022/04/08 06:22:02;;;;;;;3.30;0.60;;;11.70;78.20;;;;;;4990181;28;20033;-71
2022/04/08 06:24:28;;;;;;;2.80;0.70;;;11.80;79.00;;;;;;5001297;28;20030;-71
2022/04/08 06:26:54;;;;;;;1.80;0.83;;;12.30;78.40;;;;;;4990224;28;20037;-71
2022/04/08 06:29:20;;;;;;;;;;;13.10;76.80;;;;;;4978329;28;20030;-72
2022/04/08 06:31:46;;;;;;;0.50;0.40;;;13.90;73.20;;;;;;4988839;28;20850;-71
2022/04/08 06:34:13;;;;;;;;;;;13.80;73.10;;;;;;4977355;28;20109;-71
2022/04/08 06:36:39;;;;;;;2.03;0.68;;;13.40;74.80;;;;;;4986711;28;19987;-71
2022/04/08 06:39:05;;;;;;;2.50;0.77;;;13.60;75.00;;;;;;4987292;28;20149;-71
2022/04/08 06:41:31;;;;;;;2.30;0.60;;;14.10;74.20;;;;;;4979758;28;20613;-71
2022/04/08 06:43:59;;;;;;;2.50;0.67;;;15.00;73.00;;;;;;4987933;28;20721;-72
2022/04/08 06:46:31;;;;;;;1.90;0.90;;;16.80;69.50;;;;;;4984888;28;20468;-72
2022/04/08 06:49:02;;;;;;;1.83;0.95;;;18.80;63.50;;;;;;4988474;28;20088;-71
2022/04/08 06:51:30;;;;;;;1.85;0.77;;;19.40;60.90;;;;;;4994926;28;20030;-71
2022/04/08 06:53:57;;;;;;;1.55;0.52;;;19.10;59.90;;;;;;4984860;28;20026;-72
2022/04/08 06:56:23;;;;;;;1.92;1.00;;;19.00;59.10;;;;;;4983684;28;20026;-72
2022/04/08 06:58:50;;;;;;;2.63;0.70;;;19.00;60.10;;;;;;4992485;28;20637;-72
2022/04/08 07:01:18;;;;;;;1.13;0.68;;;20.10;58.10;;;;;;4978988;28;20692;-72
2022/04/08 07:03:45;;;;;;;1.73;0.55;;;21.30;54.40;;;;;;4988559;28;20059;-72
2022/04/08 07:06:11;;;;;;;2.15;0.77;;;21.90;52.50;;;;;;4981843;28;20684;-71
2022/04/08 07:08:37;;;;;;;2.42;0.75;;;22.00;50.70;;;;;;4988261;28;20022;-71
2022/04/08 07:11:03;;;;;;;3.20;1.33;;;22.00;50.10;;;;;;4988808;28;20018;-72
2022/04/08 07:13:29;;;;;;;;;;;21.70;50.30;;;;;;4983025;28;20080;-72
2022/04/08 07:15:54;;;;;;;1.90;0.68;;;22.00;50.20;;;;;;4988750;28;19921;-72
2022/04/08 07:18:21;;;;;;;2.47;0.88;;;23.40;48.20;;;;;;4983064;28;20056;-72
2022/04/08 07:20:47;;;;;;;1.52;0.50;;;23.10;47.20;;;;;;4984997;28;20033;-72
2022/04/08 07:23:14;;;;;;;1.17;1.00;;;22.50;47.50;;;;;;4986672;28;20027;-72
2022/04/08 07:25:40;;;;;;;1.98;0.75;;;21.30;47.80;;;;;;4991848;28;20357;-71
2022/04/08 07:28:06;;;;;;;2.03;0.60;;;20.10;50.40;;;;;;5004435;28;20033;-71
2022/04/08 07:30:31;;;;;;;1.27;0.70;;;19.20;52.40;;;;;;4984548;28;20053;-71
2022/04/08 07:33:00;;;;;;;3.33;0.85;;;18.50;54.00;;;;;;4988025;28;20034;-71
2022/04/08 07:35:26;;;;;;;2.08;0.90;;;17.20;56.60;;;;;;4997359;28;20029;-71
2022/04/08 07:37:53;;;;;;;0.70;0.63;;;16.00;59.70;;;;;;5001919;28;20025;-71
2022/04/08 07:40:20;;;;;;;2.85;0.95;;;15.30;61.10;;;;;;4980271;28;20019;-73
2022/04/08 07:42:46;;;;;;;1.95;0.73;;;14.70;65.60;;;;;;4984693;28;20533;-72
2022/04/08 07:45:13;;;;;;;1.87;0.83;;;14.00;66.80;;;;;;4990132;28;20015;-71
2022/04/08 07:47:39;;;;;;;1.80;0.65;;;13.50;69.00;;;;;;4985054;28;20045;-72
2022/04/08 07:50:13;;;;;;;1.77;0.60;;;13.50;70.40;;;;;;5001023;28;20069;-71
2022/04/08 07:52:41;;;;;;;2.08;0.68;;;13.70;70.60;;;;;;4985884;28;20292;-72
2022/04/08 07:55:07;;;;;;;2.08;0.65;;;13.80;71.20;;;;;;4987612;28;20022;-71
2022/04/08 07:57:33;;;;;;;;;;;13.90;70.80;;;;;;4985872;28;20030;-72
2022/04/08 07:59:58;;;;;;;2.80;0.90;;;15.10;68.50;;;;;;4992803;28;19912;-72
2022/04/08 08:02:26;;;;;;;1.67;1.10;;;15.70;65.70;;;;;;4986369;28;20026;-72
2022/04/08 08:04:52;;;;;;;2.30;0.70;;;15.10;66.70;;;;;;4985765;28;20022;-71
2022/04/08 08:07:17;;;;;;;1.25;0.90;;;14.70;68.10;;;;;;4981953;28;20189;-72
2022/04/08 08:09:43;;;;;;;2.47;1.27;;;14.20;69.80;;;;;;4985856;28;20609;-72
2022/04/08 08:12:10;;;;;;;1.13;0.70;;;13.80;70.90;;;;;;4986721;28;20030;-72
2022/04/08 08:14:36;;;;;;;1.05;0.60;;;13.70;72.00;;;;;;4987391;28;20261;-71
2022/04/08 08:17:04;;;;;;;2.37;0.70;;;13.80;72.40;;;;;;4985035;28;20076;-71
2022/04/08 08:19:31;;;;;;;2.45;0.68;;;13.90;72.50;;;;;;4979995;28;20025;-71
2022/04/08 08:21:57;;;;;;;;;;;13.90;72.30;;;;;;4993564;28;20700;-71
2022/04/08 08:24:23;;;;;;;2.25;0.70;;;13.50;73.20;;;;;;4985799;28;19916;-72
2022/04/08 08:26:49;;;;;;;;;;;13.20;74.70;;;;;;4982810;28;20077;-72
2022/04/08 08:29:14;;;;;;;1.63;0.63;;;13.00;75.60;;;;;;4988209;28;20383;-71
2022/04/08 08:31:40;;;;;;;2.73;0.70;;;12.90;76.60;;;;;;4984287;28;20099;-72
2022/04/08 08:34:08;;;;;;;2.13;0.97;;;12.80;77.10;;;;;;4979883;28;20110;-71
2022/04/08 08:36:33;;;;;;;2.20;0.60;;;12.80;77.80;;;;;;4987755;28;20018;-71
2022/04/08 08:39:00;;;;;;;1.73;0.83;;;12.60;78.40;;;;;;4976789;28;20022;-72
2022/04/08 08:41:26;;;;;;;2.03;0.90;;;12.40;80.40;;;;;;4981914;28;20018;-72
2022/04/08 08:43:54;;;;;;;1.30;0.90;;;12.30;80.60;;;;;;4977802;28;20053;-72
2022/04/08 08:46:24;;;;;;;3.08;0.90;;;12.30;81.80;;;;;;4989197;28;20656;-71
2022/04/08 08:48:50;;;;;;;2.95;0.85;;;12.20;81.10;;;;;;4984539;28;20030;-71
2022/04/08 08:51:18;;;;;;;6.10;0.90;;;12.30;81.60;;;;;;4987954;28;20582;-71
2022/04/08 08:53:47;;;;;;;4.72;0.80;;;12.40;81.40;;;;;;4988420;28;20136;-72
2022/04/08 08:56:14;;;;;;;2.55;0.77;;;12.40;81.40;;;;;;4986124;28;20038;-71
2022/04/08 08:58:41;;;;;;;4.57;0.90;;;12.40;81.40;;;;;;4986487;28;20017;-72
2022/04/08 09:01:10;;;;;;;0.93;0.57;;;12.50;81.50;;;;;;4982241;28;20022;-72
2022/04/08 09:03:36;;;;;;;2.05;1.00;;;12.60;80.50;;;;;;4998448;28;20760;-71
2022/04/08 09:06:06;;;;;;;3.40;0.80;;;12.90;79.60;;;;;;4973363;28;20033;-71
2022/04/08 09:08:34;;;;;;;3.78;0.85;;;13.00;78.30;;;;;;4978563;28;20030;-71
2022/04/08 09:11:02;;;;;;;2.72;0.95;;;13.10;78.40;;;;;;4977135;28;20059;-71
2022/04/08 09:13:29;;;;;;;1.40;0.60;;;13.10;77.70;;;;;;4997198;28;20053;-72
2022/04/08 09:16:01;;;;;;;2.15;1.08;;;13.30;77.80;;;;;;4992960;28;20416;-71
2022/04/08 09:18:34;;;;;;;3.22;0.90;;;13.40;75.00;;;;;;4981686;28;20019;-71
2022/04/08 09:21:01;;;;;;;1.65;0.77;;;13.40;74.80;;;;;;4979446;28;20034;-72
2022/04/08 09:23:33;;;;;;;2.55;1.00;;;13.80;73.90;;;;;;4980701;28;20748;-71
2022/04/08 09:26:05;;;;;;;3.03;0.73;;;14.10;73.00;;;;;;4980743;28;20790;-72
2022/04/08 09:28:37;;;;;;;3.40;0.90;;;14.70;73.20;;;;;;4986521;28;20054;-71
2022/04/08 09:31:05;;;;;;;3.28;0.73;;;15.20;68.60;;;;;;4984955;28;20032;-71
2022/04/08 09:33:31;;;;;;;2.50;0.82;;;15.70;66.60;;;;;;4982920;28;20018;-72
2022/04/08 09:35:58;;;;;;;6.30;0.80;;;15.90;65.50;;;;;;4986083;28;20064;-71
2022/04/08 09:38:26;;;;;;;1.90;1.10;;;15.90;64.70;;;;;;4986805;28;20033;-71
2022/04/08 09:41:07;;;;;;;2.47;1.13;;;15.50;65.70;;;;;;4984464;28;20022;-72
2022/04/08 09:43:38;;;;;;;3.88;1.30;;;15.20;65.70;;;;;;4982908;28;20018;-72
2022/04/08 09:46:17;;;;;;;2.45;0.88;;;15.20;66.60;;;;;;4985585;28;20022;-73
2022/04/08 09:48:45;;;;;;;2.75;0.80;;;15.70;66.50;;;;;;4985989;28;20019;-72
2022/04/08 09:51:15;;;;;;;1.98;0.98;;;16.00;63.50;;;;;;4980142;28;20113;-72
2022/04/08 09:53:42;;;;;;;2.47;0.70;;;16.30;63.50;;;;;;4988373;28;20053;-72
2022/04/08 09:56:14;;;;;;;2.45;0.68;;;16.90;61.60;;;;;;4984410;28;20110;-73
2022/04/08 09:58:48;;;;;;;2.58;0.90;;;17.60;60.60;;;;;;4990636;28;20384;-73
2022/04/08 10:01:23;;;;;;;1.50;1.00;;;18.60;57.40;;;;;;4984001;28;20025;-73
2022/04/08 10:03:49;;;;;;;3.55;1.10;;;18.70;56.80;;;;;;4991166;28;20017;-74
2022/04/08 10:06:23;;;;;;;2.75;0.70;;;18.80;56.20;;;;;;4987760;28;21635;-73
2022/04/08 10:08:50;;;;;;;0.90;0.70;;;18.90;55.30;;;;;;5008454;28;20026;-74
2022/04/08 10:11:24;;;;;;;4.78;1.00;;;19.00;55.60;;;;;;4988141;28;20057;-74
2022/04/08 10:14:04;;;;;;;2.63;0.70;;;18.60;54.00;;;;;;4994744;28;20041;-73
2022/04/08 10:16:33;;;;;;;2.30;0.98;;;18.00;54.50;;;;;;4990768;28;20767;-73
2022/04/08 10:19:07;;;;;;;2.80;0.90;;;17.50;53.70;;;;;;4988473;28;20044;-73
2022/04/08 10:21:39;;;;;;;2.97;1.23;;;16.70;54.20;;;;;;4984962;28;20006;-73
2022/04/08 10:24:13;;;;;;;3.40;0.85;;;16.00;55.70;;;;;;4997540;28;20109;-73
2022/04/08 10:27:04;;;;;;;1.05;0.70;;;15.80;56.50;;;;;;4989388;28;20029;-73
2022/04/08 10:29:36;;;;;;;3.10;0.75;;;15.80;56.80;;;;;;4983968;28;20026;-72
2022/04/08 10:32:22;;;;;;;2.58;0.88;;;15.80;56.90;;;;;;5005167;28;20372;-73
2022/04/08 10:34:55;;;;;;;3.20;0.73;;;15.80;56.90;;;;;;4987716;28;20156;-74
2022/04/08 10:37:24;;;;;;;1.50;0.60;;;15.80;57.00;;;;;;5006559;28;20049;-73
2022/04/08 10:40:04;;;;;;;2.25;0.85;;;15.70;57.50;;;;;;4985245;28;20072;-72
2022/04/08 10:42:33;;;;;;;1.83;0.85;;;15.50;58.00;;;;;;4983915;28;20041;-73
2022/04/08 10:45:09;;;;;;;2.05;0.60;;;15.30;58.90;;;;;;4991951;28;20022;-73
2022/04/08 10:47:47;;;;;;;3.25;0.60;;;15.30;58.50;;;;;;4987312;28;20057;-73
2022/04/08 10:50:24;;;;;;;1.38;0.65;;;15.20;59.00;;;;;;4994183;28;20034;-73
2022/04/08 10:53:05;;;;;;;2.42;0.50;;;15.10;59.40;;;;;;4987543;28;20924;-73
2022/04/08 10:55:45;;;;;;;2.35;0.70;;;14.90;59.80;;;;;;4997435;28;20029;-73
2022/04/08 10:58:11;;;;;;;1.65;0.65;;;14.80;60.20;;;;;;4989844;28;20080;-73
2022/04/08 11:00:40;;;;;;;1.08;0.73;;;14.80;60.50;;;;;;4981115;28;20031;-73
2022/04/08 11:03:07;;;;;;;1.73;0.45;;;14.80;61.70;;;;;;4984736;28;20674;-73
2022/04/08 11:05:39;;;;;;;1.75;0.45;;;14.90;61.40;;;;;;4982313;28;20043;-73
2022/04/08 11:08:07;;;;;;;2.78;0.65;;;15.10;61.30;;;;;;5005604;28;20159;-74
2022/04/08 11:10:37;;;;;;;0.52;0.50;;;15.20;61.10;;;;;;4994327;28;20638;-73
2022/04/08 11:13:11;;;;;;;1.27;0.40;;;15.40;60.40;;;;;;4997545;28;20380;-74
2022/04/08 11:15:43;;;;;;;1.35;0.70;;;15.40;60.30;;;;;;4981113;28;20797;-73
2022/04/08 11:18:11;;;;;;;1.63;0.63;;;15.50;60.40;;;;;;4983969;28;20041;-73
2022/04/08 11:20:39;;;;;;;1.23;0.45;;;15.50;60.50;;;;;;4983536;28;20069;-73
2022/04/08 11:23:04;;;;;;;0.50;0.40;;;15.60;60.60;;;;;;4982852;28;20030;-73
2022/04/08 11:25:38;;;;;;;1.13;0.67;;;15.80;61.00;;;;;;4980054;28;20060;-73
2022/04/08 11:28:10;;;;;;;1.88;0.47;;;15.90;59.90;;;;;;5006190;28;20746;-73
2022/04/08 11:30:40;;;;;;;0.40;0.30;;;16.00;59.90;;;;;;4984006;28;20061;-73
2022/04/08 11:33:16;;;;;;;1.08;0.47;;;15.90;59.60;;;;;;4998932;28;20023;-73
2022/04/08 11:35:43;;;;;;;0.50;0.40;;;15.80;60.50;;;;;;4981707;28;20026;-73
2022/04/08 11:38:16;;;;;;;2.38;0.70;;;15.90;60.40;;;;;;4989610;28;20029;-73
2022/04/08 11:40:42;;;;;;;2.28;0.45;;;15.90;60.20;;;;;;4974981;28;20550;-73
2022/04/08 11:43:13;;;;;;;0.93;0.40;;;16.10;60.70;;;;;;4990459;28;20125;-74
2022/04/08 11:45:39;;;;;;;2.35;0.55;;;16.60;59.30;;;;;;4989109;28;20034;-73
2022/04/08 11:48:13;;;;;;;0.75;0.55;;;16.60;58.80;;;;;;4988592;28;20026;-73
2022/04/08 11:50:46;;;;;;;1.08;0.40;;;16.60;58.70;;;;;;4983786;28;20041;-73
2022/04/08 11:53:20;;;;;;;1.33;0.60;;;16.60;59.30;;;;;;4985535;28;20046;-73
2022/04/08 11:56:01;;;;;;;0.50;0.30;;;16.60;58.70;;;;;;4982627;28;20025;-73
2022/04/08 11:58:28;;;;;;;0.55;0.40;;;16.80;59.40;;;;;;4989027;28;20045;-73
2022/04/08 12:00:56;;;;;;;0.80;0.30;;;16.90;58.70;;;;;;4987657;28;20050;-74
2022/04/08 12:03:26;;;;;;;0.57;0.38;;;17.10;58.60;;;;;;4987536;28;20026;-73
2022/04/08 12:05:53;;;;;;;0.30;0.30;;;17.30;57.90;;;;;;4980100;28;20030;-73
2022/04/08 12:08:21;;;;;;;0.70;0.45;;;17.30;57.60;;;;;;4986936;28;20030;-73
2022/04/08 12:10:54;;;;;;;0.52;0.45;;;17.30;57.70;;;;;;4985230;28;20030;-73
2022/04/08 12:13:25;;;;;;;1.15;0.30;;;17.10;58.10;;;;;;5004663;28;20503;-73
2022/04/08 12:15:56;;;;;;;1.45;0.63;;;17.20;58.20;;;;;;4983689;28;20149;-73
2022/04/08 12:18:25;;;;;;;0.40;0.32;;;17.30;58.00;;;;;;4986208;28;20026;-73
2022/04/08 12:20:59;;;;;;;2.78;0.30;;;17.60;58.10;;;;;;4979629;28;20538;-73
2022/04/08 12:23:26;;;;;;;0.52;0.20;;;17.80;57.70;;;;;;5000683;28;20154;-73
2022/04/08 12:25:54;;;;;;;0.55;0.38;;;17.90;57.30;;;;;;4995578;28;20026;-73
2022/04/08 12:28:29;;;;;;;0.57;0.20;;;18.10;56.80;;;;;;4983814;28;20034;-73
2022/04/08 12:31:30;;;;;;;1.08;0.43;;;18.10;56.50;;;;;;4983795;28;20038;-73
2022/04/08 12:34:02;;;;;;;0.28;0.25;;;17.70;56.70;;;;;;4944884;28;20039;-72
2022/04/08 12:36:30;;;;;;;1.20;0.50;;;17.50;57.70;;;;;;4974994;28;20741;-71
2022/04/08 12:38:56;;;;;;;0.88;0.38;;;17.60;57.90;;;;;;4984247;28;20026;-72
2022/04/08 12:41:22;;;;;;;1.90;0.30;;;17.70;57.20;;;;;;4989009;28;20068;-72
2022/04/08 12:43:48;;;;;;;0.80;0.50;;;17.80;56.90;;;;;;4981777;28;20062;-72
2022/04/08 12:46:13;;;;;;;0.47;0.35;;;17.80;56.90;;;;;;4983431;28;20488;-73
2022/04/08 12:48:39;;;;;;;0.98;0.20;;;17.70;56.80;;;;;;4982307;28;20034;-73
2022/04/08 12:51:07;;;;;;;1.85;0.45;;;17.80;57.50;;;;;;4986819;28;20034;-72
2022/04/08 12:53:33;;;;;;;0.65;0.43;;;17.70;57.30;;;;;;4985692;28;20026;-73
2022/04/08 12:55:59;;;;;;;1.50;0.70;;;17.50;58.20;;;;;;4986387;28;20026;-72
2022/04/08 12:58:28;;;;;;;1.15;0.45;;;17.30;59.60;;;;;;4988888;28;20081;-72
2022/04/08 13:00:57;;;;;;;0.98;0.50;;;17.00;58.80;;;;;;4981574;28;20695;-72
2022/04/08 13:03:22;;;;;;;2.08;0.55;;;16.60;59.90;;;;;;5003162;28;20360;-71
2022/04/08 13:05:48;;;;;;;4.03;1.00;;;16.40;61.30;;;;;;4978506;28;20033;-71
2022/04/08 13:08:14;;;;;;;1.17;0.90;;;16.20;63.90;;;;;;4982818;28;20033;-72
2022/04/08 13:10:42;;;;;;;3.97;1.27;;;15.90;65.80;;;;;;4982037;28;20029;-72
2022/04/08 13:13:10;;;;;;;2.55;1.52;;;15.50;67.50;;;;;;4991229;28;20380;-71
2022/04/08 13:15:37;;;;;;;2.60;1.40;;;15.50;68.10;;;;;;4995513;28;20026;-71
2022/04/08 13:18:05;;;;;;;1.52;1.40;;;15.50;67.40;;;;;;4982900;28;20488;-72
2022/04/08 13:20:30;;;;;;;4.35;1.55;;;15.40;68.50;;;;;;4978327;28;20027;-71
2022/04/08 13:22:57;;;;;;;2.33;1.73;;;15.40;69.00;;;;;;4978549;28;20387;-72
2022/04/08 13:25:24;;;;;;;3.45;2.38;;;15.40;69.30;;;;;;4983533;28;20512;-72